Time;durP1;ratioP1;P1;durP2;ratioP2;P2;SDS_P1;SDS_P2;PMS_P1;PMS_P2;Temp;Humidity;BMP_temperature;BMP_pressure;BME280_temperature;BME280_humidity;BME280_pressure;Samples;Min_cycle;Max_cycle;Signal;HPM_P1;HPM_P2
2024/02/26 07:52:01;;;;;;;10.82;9.45;;;8.70;80.90;;;;;;5027791;28;112683;-45
2024/02/26 07:54:27;;;;;;;12.10;9.50;;;9.00;80.00;;;;;;5013817;27;113011;-46
2024/02/26 07:56:52;;;;;;;10.88;9.77;;;9.00;79.70;;;;;;5012712;28;113015;-45
2024/02/26 07:59:18;;;;;;;12.32;10.07;;;9.30;79.60;;;;;;5003554;28;113803;-46
2024/02/26 08:01:44;;;;;;;13.40;10.07;;;9.50;79.10;;;;;;5002874;28;112659;-47
2024/02/26 08:04:09;;;;;;;10.57;9.43;;;9.50;78.80;;;;;;5013925;28;112699;-46
2024/02/26 08:06:35;;;;;;;11.20;10.10;;;9.50;78.80;;;;;;5008312;28;113408;-45
2024/02/26 08:09:01;;;;;;;14.85;9.57;;;9.50;78.70;;;;;;5002505;28;113446;-49
2024/02/26 08:11:27;;;;;;;13.38;9.90;;;9.50;79.10;;;;;;5003629;28;113838;-46
2024/02/26 08:13:53;;;;;;;12.50;9.90;;;9.40;79.40;;;;;;5007600;28;112639;-45
2024/02/26 08:16:19;;;;;;;12.50;9.85;;;9.50;79.10;;;;;;5016846;28;113203;-49
2024/02/26 08:18:44;;;;;;;12.30;9.32;;;9.40;79.00;;;;;;5006765;28;116471;-45
2024/02/26 08:21:10;;;;;;;10.57;9.38;;;9.40;79.10;;;;;;5008398;28;112630;-48
2024/02/26 08:23:36;;;;;;;9.85;8.95;;;9.50;79.20;;;;;;5007527;28;113347;-45
2024/02/26 08:26:04;;;;;;;12.88;8.90;;;9.80;79.00;;;;;;5008765;28;112770;-45
2024/02/26 08:28:29;;;;;;;10.98;8.45;;;9.80;78.40;;;;;;5008241;28;114981;-45
2024/02/26 08:30:55;;;;;;;9.88;8.40;;;9.70;78.50;;;;;;5003475;28;113744;-45
2024/02/26 08:33:21;;;;;;;8.85;7.95;;;9.80;78.40;;;;;;5004511;28;112955;-45
2024/02/26 08:35:46;;;;;;;9.43;8.05;;;9.80;77.70;;;;;;5003059;28;112866;-45
2024/02/26 08:38:12;;;;;;;10.02;8.27;;;9.90;77.80;;;;;;5008703;28;113225;-45
2024/02/26 08:40:38;;;;;;;12.40;8.40;;;9.90;77.60;;;;;;5002284;28;112684;-49
2024/02/26 08:43:04;;;;;;;12.27;8.25;;;10.00;77.60;;;;;;5006395;28;112773;-47
2024/02/26 08:45:29;;;;;;;10.40;8.32;;;10.10;77.40;;;;;;5017950;28;112669;-48
2024/02/26 08:47:55;;;;;;;11.63;8.90;;;10.10;77.70;;;;;;5003241;28;113374;-52
2024/02/26 08:50:21;;;;;;;12.90;9.65;;;10.20;77.40;;;;;;5002919;28;113703;-47
2024/02/26 08:52:50;;;;;;;11.80;7.85;;;10.10;77.30;;;;;;4999532;28;113196;-45
2024/02/26 08:55:15;;;;;;;11.95;8.65;;;10.00;77.90;;;;;;5008729;28;112946;-51
2024/02/26 08:57:41;;;;;;;10.52;7.35;;;10.10;77.50;;;;;;5012279;28;113339;-47
2024/02/26 09:00:07;;;;;;;13.48;8.38;;;9.90;77.80;;;;;;5015697;28;113957;-47
2024/02/26 09:02:33;;;;;;;11.65;8.18;;;9.90;77.90;;;;;;5000836;28;112710;-47
2024/02/26 09:04:59;;;;;;;13.57;9.02;;;10.00;77.80;;;;;;4991691;28;112777;-44
2024/02/26 09:07:24;;;;;;;11.02;8.55;;;10.10;77.90;;;;;;4989988;28;113663;-47
2024/02/26 09:09:50;;;;;;;10.90;8.75;;;10.20;77.70;;;;;;4992852;28;112762;-45
2024/02/26 09:12:16;;;;;;;12.32;8.30;;;10.40;77.50;;;;;;4996367;28;113035;-49
2024/02/26 09:14:42;;;;;;;9.75;8.50;;;10.30;77.20;;;;;;4996143;28;112765;-45
2024/02/26 09:17:08;;;;;;;10.73;8.68;;;10.30;78.00;;;;;;4989477;28;113537;-45
2024/02/26 09:19:33;;;;;;;12.55;9.32;;;10.50;77.80;;;;;;4989454;28;112759;-45
2024/02/26 09:21:59;;;;;;;10.90;8.93;;;10.50;77.40;;;;;;4991730;28;112640;-45
2024/02/26 09:24:26;;;;;;;9.23;8.23;;;10.60;77.50;;;;;;4989245;28;113033;-48
2024/02/26 09:26:51;;;;;;;14.60;8.73;;;10.50;77.70;;;;;;4989418;28;113308;-49
2024/02/26 09:29:17;;;;;;;11.77;8.30;;;10.50;77.70;;;;;;4989265;28;114055;-50
2024/02/26 09:31:46;;;;;;;11.25;7.68;;;10.40;77.70;;;;;;4990431;28;112916;-48
2024/02/26 09:34:12;;;;;;;12.27;7.90;;;10.50;77.70;;;;;;4994798;28;112944;-50
2024/02/26 09:36:38;;;;;;;12.90;8.88;;;10.60;77.60;;;;;;5007853;28;114509;-50
2024/02/26 09:39:04;;;;;;;10.73;8.40;;;10.50;77.70;;;;;;5000893;28;112788;-45
2024/02/26 09:41:31;;;;;;;12.10;7.82;;;10.60;78.10;;;;;;4998839;28;112534;-46
2024/02/26 09:43:59;;;;;;;10.32;7.68;;;10.70;77.80;;;;;;4994455;28;112764;-44
2024/02/26 09:46:28;;;;;;;13.25;8.27;;;10.80;78.10;;;;;;4988972;28;114683;-44
2024/02/26 09:48:55;;;;;;;11.60;7.85;;;10.90;77.50;;;;;;4983633;28;113806;-44
2024/02/26 09:51:26;;;;;;;10.93;7.97;;;11.00;77.30;;;;;;4989829;28;112643;-45
2024/02/26 09:53:52;;;;;;;10.48;8.18;;;11.20;77.10;;;;;;4993479;28;113063;-45
2024/02/26 09:56:19;;;;;;;10.40;7.82;;;11.30;76.00;;;;;;4992800;28;114570;-46
2024/02/26 09:58:48;;;;;;;11.57;7.90;;;11.50;76.00;;;;;;4990063;28;112613;-47
2024/02/26 10:01:17;;;;;;;12.70;8.88;;;11.50;75.90;;;;;;4999079;28;113148;-48
2024/02/26 10:03:44;;;;;;;13.10;8.52;;;11.70;75.80;;;;;;4991546;28;114265;-46
2024/02/26 10:06:11;;;;;;;10.60;8.32;;;11.80;75.50;;;;;;4996547;28;113488;-46
2024/02/26 10:08:37;;;;;;;11.77;8.38;;;12.10;75.10;;;;;;4991423;28;114573;-49
2024/02/26 10:11:08;;;;;;;13.80;8.25;;;12.30;74.00;;;;;;4990021;28;112553;-45
2024/02/26 10:13:36;;;;;;;10.23;8.45;;;12.70;73.10;;;;;;4988107;28;112852;-50
2024/02/26 10:16:03;;;;;;;10.38;8.38;;;13.00;72.30;;;;;;4988642;28;114878;-46
2024/02/26 10:18:49;;;;;;;9.75;8.02;;;13.40;71.40;;;;;;4988162;28;113752;-48
2024/02/26 10:21:17;;;;;;;9.80;8.25;;;13.60;70.90;;;;;;4991688;28;112537;-47
2024/02/26 10:23:44;;;;;;;12.65;8.65;;;13.50;70.60;;;;;;4991615;28;113913;-48
2024/02/26 10:26:12;;;;;;;15.32;8.60;;;13.50;70.80;;;;;;4991389;28;114913;-52
2024/02/26 10:28:39;;;;;;;14.45;9.20;;;13.50;71.30;;;;;;4992950;28;113096;-53
2024/02/26 10:31:04;;;;;;;10.48;8.88;;;13.40;70.80;;;;;;4995968;28;113197;-47
2024/02/26 10:33:35;;;;;;;13.98;9.68;;;13.20;71.70;;;;;;4993844;28;112689;-49
2024/02/26 10:36:01;;;;;;;11.52;9.15;;;13.70;71.00;;;;;;5000864;28;114461;-46
2024/02/26 10:38:26;;;;;;;11.32;9.45;;;14.30;68.90;;;;;;4994255;28;112840;-46
2024/02/26 10:40:52;;;;;;;9.80;8.90;;;14.40;68.70;;;;;;4992497;28;112776;-47
2024/02/26 10:43:18;;;;;;;10.82;8.98;;;14.70;68.20;;;;;;4998354;28;112877;-49
2024/02/26 10:45:45;;;;;;;11.85;8.98;;;14.90;67.00;;;;;;4987984;28;113155;-45
2024/02/26 10:48:13;;;;;;;10.95;8.63;;;14.90;67.70;;;;;;4992911;28;114056;-47
2024/02/26 10:50:39;;;;;;;11.30;7.15;;;15.10;66.90;;;;;;4988930;28;112778;-44
2024/02/26 10:53:14;;;;;;;11.55;8.50;;;15.20;66.70;;;;;;4989275;28;112749;-44
2024/02/26 10:55:41;;;;;;;12.27;8.90;;;15.40;67.00;;;;;;4988038;28;115066;-46
2024/02/26 10:58:08;;;;;;;11.95;8.80;;;15.10;67.80;;;;;;4988092;28;113334;-46
2024/02/26 11:00:38;;;;;;;11.25;8.80;;;14.40;68.40;;;;;;4988971;28;112675;-45
2024/02/26 11:03:05;;;;;;;15.63;10.32;;;13.80;70.30;;;;;;4988938;28;112669;-49
2024/02/26 11:05:33;;;;;;;16.13;10.13;;;13.50;71.10;;;;;;4986501;28;113365;-48
2024/02/26 11:08:00;;;;;;;14.55;10.80;;;13.10;72.60;;;;;;4986614;28;112815;-48
2024/02/26 11:10:29;;;;;;;12.68;9.30;;;13.10;73.40;;;;;;5001385;28;112506;-44
2024/02/26 11:12:58;;;;;;;12.82;10.25;;;13.10;73.40;;;;;;4988765;28;112805;-51
2024/02/26 11:15:24;;;;;;;11.70;9.45;;;13.00;73.90;;;;;;4986294;28;113222;-47
2024/02/26 11:17:53;;;;;;;13.20;10.43;;;12.90;73.90;;;;;;4987741;28;113586;-48
2024/02/26 11:20:20;;;;;;;13.75;9.63;;;13.30;73.40;;;;;;4986637;28;113011;-52
2024/02/26 11:22:46;;;;;;;13.98;9.63;;;13.10;73.50;;;;;;4988586;28;112861;-45
2024/02/26 11:25:13;;;;;;;12.60;8.10;;;13.10;73.50;;;;;;4987398;28;114325;-47
2024/02/26 11:27:46;;;;;;;11.98;9.35;;;13.10;72.80;;;;;;4997114;28;113824;-45
2024/02/26 11:30:15;;;;;;;13.75;8.45;;;13.00;73.30;;;;;;4999738;28;112552;-45
2024/02/26 11:32:45;;;;;;;13.57;7.70;;;12.80;73.80;;;;;;4988386;28;112743;-45
2024/02/26 11:35:15;;;;;;;10.13;7.10;;;12.70;74.00;;;;;;4992089;28;114150;-44
2024/02/26 11:37:41;;;;;;;14.00;7.40;;;12.60;74.10;;;;;;4987505;28;112718;-50
2024/02/26 11:40:11;;;;;;;8.02;6.78;;;12.60;74.00;;;;;;4991310;28;112864;-45
2024/02/26 11:42:44;;;;;;;8.13;7.03;;;12.80;74.10;;;;;;4989436;28;112744;-49
2024/02/26 11:45:49;;;;;;;16.33;7.47;;;12.80;74.20;;;;;;4988846;28;113267;-45
2024/02/26 11:48:22;;;;;;;9.82;6.35;;;12.80;74.10;;;;;;4979427;28;113718;-45
2024/02/26 11:50:53;;;;;;;11.13;6.00;;;12.90;73.70;;;;;;4990702;28;112990;-48
2024/02/26 11:53:27;;;;;;;8.93;5.85;;;13.10;72.80;;;;;;4987635;28;112708;-45
2024/02/26 11:56:12;;;;;;;9.38;5.65;;;13.10;72.50;;;;;;4979731;28;113422;-48
2024/02/26 11:58:41;;;;;;;7.47;5.32;;;12.90;73.30;;;;;;4973898;28;113178;-51
2024/02/26 12:01:42;;;;;;;7.75;5.30;;;12.80;73.40;;;;;;4988159;28;112945;-48
2024/02/26 12:04:28;;;;;;;7.45;4.72;;;12.90;72.80;;;;;;4988113;28;112815;-47
2024/02/26 12:07:00;;;;;;;7.78;5.28;;;12.80;72.70;;;;;;4984422;28;114909;-46
2024/02/26 12:09:41;;;;;;;6.75;5.03;;;12.80;73.20;;;;;;4986619;28;112866;-49
2024/02/26 12:12:10;;;;;;;8.10;5.10;;;12.80;73.10;;;;;;4996548;28;112891;-45
2024/02/26 12:14:40;;;;;;;10.13;5.30;;;12.90;72.80;;;;;;4995091;28;112868;-48
2024/02/26 12:17:20;;;;;;;11.50;5.20;;;12.90;72.40;;;;;;4985396;28;113459;-47
2024/02/26 12:19:46;;;;;;;7.18;4.88;;;12.90;71.90;;;;;;4985835;28;113056;-50
2024/02/26 12:22:14;;;;;;;6.78;5.00;;;12.70;72.10;;;;;;4987354;28;114564;-48
2024/02/26 12:24:40;;;;;;;11.90;5.70;;;12.70;72.60;;;;;;4988091;28;113014;-46
2024/02/26 12:27:06;;;;;;;9.25;4.90;;;12.80;72.20;;;;;;4986932;28;114624;-46
2024/02/26 12:29:32;;;;;;;8.95;5.00;;;12.90;72.50;;;;;;4986352;28;112763;-48
2024/02/26 12:31:58;;;;;;;9.82;5.00;;;12.80;72.00;;;;;;4986954;28;112799;-45
2024/02/26 12:34:24;;;;;;;11.32;5.07;;;12.90;71.40;;;;;;4988310;28;112832;-47
2024/02/26 12:36:50;;;;;;;7.72;5.05;;;12.80;71.40;;;;;;4986618;28;114599;-45
2024/02/26 12:39:16;;;;;;;8.55;4.93;;;12.90;71.30;;;;;;4989726;28;113346;-47
2024/02/26 12:41:49;;;;;;;11.38;5.30;;;12.80;71.30;;;;;;4990889;28;112467;-46
2024/02/26 12:44:17;;;;;;;9.85;5.45;;;12.90;70.70;;;;;;4990585;28;113180;-45
2024/02/26 12:46:43;;;;;;;10.88;5.32;;;13.00;70.70;;;;;;4989568;28;114464;-46
2024/02/26 12:49:16;;;;;;;8.35;5.70;;;13.10;70.80;;;;;;4989281;28;113795;-45
2024/02/26 12:51:41;;;;;;;;;;;13.30;70.30;;;;;;4991082;28;113012;-45
2024/02/26 12:54:09;;;;;;;7.43;5.30;;;13.20;69.90;;;;;;4991666;28;112807;-45
2024/02/26 12:56:35;;;;;;;12.95;5.72;;;13.10;71.00;;;;;;5004290;28;114474;-45
2024/02/26 12:59:02;;;;;;;9.98;6.15;;;12.90;70.20;;;;;;4990118;28;113774;-46
2024/02/26 13:01:28;;;;;;;11.75;5.72;;;13.10;70.50;;;;;;4991252;28;112812;-48
2024/02/26 13:03:54;;;;;;;12.18;5.82;;;12.90;70.30;;;;;;4990469;28;112737;-50
2024/02/26 13:06:21;;;;;;;7.63;5.45;;;12.80;70.40;;;;;;4995346;28;114552;-50
2024/02/26 13:08:47;;;;;;;13.40;6.40;;;12.80;70.90;;;;;;5001426;28;112796;-48
2024/02/26 13:11:14;;;;;;;17.27;11.20;;;12.80;70.40;;;;;;4992604;28;112588;-51
2024/02/26 13:13:39;;;;;;;17.25;9.68;;;12.70;70.20;;;;;;4987963;28;112832;-48
2024/02/26 13:16:08;;;;;;;7.38;5.65;;;12.60;70.50;;;;;;4989468;28;113576;-47
2024/02/26 13:18:34;;;;;;;7.88;4.82;;;12.60;70.80;;;;;;4986355;28;114115;-47
2024/02/26 13:21:28;;;;;;;7.20;4.70;;;12.60;70.50;;;;;;4992887;28;112889;-46
2024/02/26 13:23:55;;;;;;;8.48;4.55;;;12.70;69.70;;;;;;4981898;28;113163;-50
2024/02/26 13:26:24;;;;;;;8.93;5.78;;;12.70;68.60;;;;;;4989284;28;114877;-49
2024/02/26 13:29:03;;;;;;;13.32;6.22;;;12.90;68.90;;;;;;4989773;28;113747;-52
2024/02/26 13:31:29;;;;;;;7.90;4.50;;;13.00;68.80;;;;;;4996373;28;112791;-47
2024/02/26 13:33:55;;;;;;;10.75;4.72;;;13.00;68.10;;;;;;4998162;28;112957;-48
2024/02/26 13:36:25;;;;;;;8.02;4.40;;;13.00;68.20;;;;;;4997026;28;114571;-48
2024/02/26 13:38:55;;;;;;;7.68;3.78;;;13.10;68.10;;;;;;4988711;28;113735;-50
2024/02/26 13:41:23;;;;;;;7.10;3.97;;;13.10;67.30;;;;;;4989923;28;112563;-48
2024/02/26 13:43:50;;;;;;;7.72;3.97;;;13.00;66.80;;;;;;4993343;28;112810;-49
2024/02/26 13:46:16;;;;;;;5.45;3.25;;;13.30;66.60;;;;;;4993238;28;114484;-49
2024/02/26 13:48:43;;;;;;;7.20;3.40;;;13.50;65.90;;;;;;4988225;28;113858;-47
2024/02/26 13:51:09;;;;;;;6.97;3.67;;;13.60;66.00;;;;;;4989582;28;113032;-47
2024/02/26 13:53:35;;;;;;;6.50;3.67;;;13.70;65.40;;;;;;4990112;28;112663;-48
2024/02/26 13:56:01;;;;;;;10.52;3.78;;;13.40;65.20;;;;;;4987694;28;113396;-47
2024/02/26 13:58:27;;;;;;;6.50;3.58;;;13.10;66.00;;;;;;4986209;28;115498;-47
2024/02/26 14:00:53;;;;;;;6.85;3.22;;;13.00;66.20;;;;;;4989641;28;112882;-47
2024/02/26 14:03:22;;;;;;;5.95;3.10;;;12.80;65.90;;;;;;4987934;28;112911;-47
2024/02/26 14:05:48;;;;;;;9.30;3.15;;;12.70;66.60;;;;;;4987849;28;114513;-47
2024/02/26 14:08:14;;;;;;;6.00;3.03;;;12.60;67.00;;;;;;4988563;28;113174;-48
2024/02/26 14:10:40;;;;;;;6.22;3.35;;;12.60;68.80;;;;;;4989757;28;112800;-48
2024/02/26 14:13:06;;;;;;;6.30;3.10;;;12.50;69.40;;;;;;4989272;28;112731;-46
2024/02/26 14:15:35;;;;;;;7.32;3.65;;;12.50;69.10;;;;;;4988270;28;115817;-46
2024/02/26 14:18:03;;;;;;;10.02;3.78;;;12.50;68.70;;;;;;4988457;28;112574;-46
2024/02/26 14:20:28;;;;;;;5.13;3.28;;;12.40;68.20;;;;;;4989271;28;113247;-46
2024/02/26 14:22:54;;;;;;;4.35;3.00;;;12.40;67.80;;;;;;4989396;28;112959;-46
2024/02/26 14:25:21;;;;;;;5.22;3.33;;;12.40;67.30;;;;;;4987480;28;114647;-46
2024/02/26 14:27:47;;;;;;;5.63;3.22;;;12.30;67.70;;;;;;4993842;28;112914;-46
2024/02/26 14:30:13;;;;;;;6.50;3.10;;;12.30;67.80;;;;;;4994178;28;112972;-46
2024/02/26 14:32:39;;;;;;;7.53;4.10;;;12.40;67.40;;;;;;5000246;28;112817;-53
2024/02/26 14:35:09;;;;;;;7.68;4.25;;;12.30;67.90;;;;;;4988225;28;113560;-47
2024/02/26 14:37:35;;;;;;;8.98;3.75;;;12.30;68.00;;;;;;4987450;28;113001;-46
2024/02/26 14:40:02;;;;;;;8.20;4.03;;;12.30;69.30;;;;;;4997805;28;112697;-46
2024/02/26 14:42:29;;;;;;;7.55;4.30;;;12.20;70.40;;;;;;4991513;28;112783;-49
2024/02/26 14:44:55;;;;;;;8.73;4.88;;;12.20;71.80;;;;;;4997850;28;114481;-48
2024/02/26 14:47:20;;;;;;;10.93;6.22;;;12.10;72.30;;;;;;4986404;28;114301;-47
2024/02/26 14:49:48;;;;;;;7.50;3.90;;;11.90;72.80;;;;;;4988411;28;112653;-48
2024/02/26 14:52:14;;;;;;;9.32;4.25;;;11.80;73.60;;;;;;4989014;28;112606;-48
2024/02/26 14:54:40;;;;;;;11.05;5.45;;;11.80;74.90;;;;;;4987635;28;114958;-48
2024/02/26 14:57:08;;;;;;;6.88;3.75;;;11.50;74.50;;;;;;4988027;28;112772;-49
2024/02/26 14:59:36;;;;;;;9.93;4.18;;;11.40;74.10;;;;;;4988103;28;112515;-48
2024/02/26 15:02:02;;;;;;;8.40;4.32;;;11.60;75.00;;;;;;4988581;28;112913;-53
2024/02/26 15:04:28;;;;;;;8.15;5.28;;;11.40;75.30;;;;;;4987917;28;113192;-48
2024/02/26 15:06:53;;;;;;;11.27;6.35;;;11.30;76.00;;;;;;4987479;28;114344;-47
2024/02/26 15:09:19;;;;;;;12.20;5.50;;;11.20;77.20;;;;;;4988655;28;112602;-48
2024/02/26 15:11:45;;;;;;;13.50;6.20;;;11.10;76.80;;;;;;4988494;28;113000;-47
2024/02/26 15:14:11;;;;;;;8.38;4.53;;;11.30;77.00;;;;;;4987482;28;114309;-48
2024/02/26 15:16:37;;;;;;;8.82;4.72;;;11.30;77.30;;;;;;4993844;28;112964;-49
2024/02/26 15:19:03;;;;;;;8.90;4.75;;;11.20;77.80;;;;;;5002756;28;113045;-51
2024/02/26 15:21:29;;;;;;;8.77;5.40;;;11.20;77.80;;;;;;4999153;28;112765;-49
2024/02/26 15:23:55;;;;;;;10.82;6.10;;;11.30;78.60;;;;;;4994580;28;113339;-50
2024/02/26 15:26:22;;;;;;;16.23;6.82;;;11.40;78.70;;;;;;5003166;28;112722;-48
2024/02/26 15:28:48;;;;;;;13.68;6.95;;;11.40;78.90;;;;;;4997322;28;114381;-48
2024/02/26 15:31:15;;;;;;;11.52;7.43;;;11.20;79.40;;;;;;4994699;28;112802;-50
2024/02/26 15:33:41;;;;;;;11.00;8.02;;;11.20;79.40;;;;;;4987043;28;113227;-48
2024/02/26 15:36:10;;;;;;;14.50;9.55;;;11.20;80.00;;;;;;4993939;28;112668;-48
2024/02/26 15:38:36;;;;;;;10.65;8.45;;;11.30;80.10;;;;;;4988268;28;112908;-51
2024/02/26 15:41:01;;;;;;;12.68;8.57;;;11.20;80.10;;;;;;4988272;28;113978;-47
2024/02/26 15:43:27;;;;;;;12.13;6.88;;;11.10;80.30;;;;;;4986011;28;113178;-48
2024/02/26 15:45:53;;;;;;;11.75;7.40;;;11.00;80.50;;;;;;4984259;28;112834;-47
2024/02/26 15:48:18;;;;;;;11.32;7.72;;;10.90;80.60;;;;;;4987221;28;112585;-46
2024/02/26 15:50:44;;;;;;;10.50;7.47;;;10.80;81.20;;;;;;4989614;28;112680;-50
2024/02/26 15:53:10;;;;;;;12.73;8.00;;;10.80;81.40;;;;;;4986584;28;114569;-48
2024/02/26 15:55:35;;;;;;;10.80;7.40;;;10.90;81.50;;;;;;4987129;28;113093;-50
2024/02/26 15:58:01;;;;;;;12.38;7.95;;;10.80;81.80;;;;;;4999223;28;112772;-47
2024/02/26 16:00:27;;;;;;;11.48;7.65;;;10.70;81.90;;;;;;4992897;28;112701;-48
2024/02/26 16:02:52;;;;;;;14.65;8.75;;;10.70;82.00;;;;;;4997800;28;114009;-47
2024/02/26 16:05:19;;;;;;;13.73;9.70;;;10.60;82.50;;;;;;4990671;28;112960;-50
2024/02/26 16:07:50;;;;;;;11.38;9.02;;;10.70;82.70;;;;;;4998384;28;112650;-52
2024/02/26 16:10:17;;;;;;;15.83;9.57;;;10.80;82.00;;;;;;4997243;28;112891;-49
2024/02/26 16:12:53;;;;;;;14.38;9.75;;;10.80;82.50;;;;;;4995539;28;114462;-48
2024/02/26 16:15:20;;;;;;;14.13;11.05;;;10.60;82.70;;;;;;5003366;28;113622;-50
2024/02/26 16:17:48;;;;;;;18.15;12.55;;;10.60;82.90;;;;;;5002890;28;112932;-48
2024/02/26 16:20:19;;;;;;;15.10;12.07;;;10.50;83.50;;;;;;5002723;28;113015;-48
2024/02/26 16:22:46;;;;;;;20.95;13.73;;;10.50;83.00;;;;;;5002425;28;114962;-48
2024/02/26 16:25:12;;;;;;;14.23;11.50;;;10.50;83.30;;;;;;5003144;28;114091;-46
2024/02/26 16:27:40;;;;;;;14.45;10.52;;;10.40;83.40;;;;;;5002258;28;113354;-47
2024/02/26 16:30:07;;;;;;;13.15;10.75;;;10.40;83.30;;;;;;4990108;28;113075;-47
2024/02/26 16:32:34;;;;;;;11.23;9.30;;;10.40;83.50;;;;;;4988753;28;113176;-50
2024/02/26 16:35:01;;;;;;;12.40;9.25;;;10.30;83.20;;;;;;4989944;28;114524;-51
2024/02/26 16:37:28;;;;;;;12.90;9.93;;;10.30;83.40;;;;;;4997130;28;114751;-46
2024/02/26 16:39:57;;;;;;;14.63;10.27;;;10.40;83.70;;;;;;4993751;28;113245;-48
2024/02/26 16:42:23;;;;;;;15.18;9.68;;;10.40;83.70;;;;;;4985524;28;113303;-48
2024/02/26 16:44:49;;;;;;;15.32;11.20;;;10.40;83.40;;;;;;4996733;28;113849;-46
2024/02/26 16:47:14;;;;;;;11.90;8.18;;;10.30;83.60;;;;;;5002520;28;112496;-46
2024/02/26 16:49:40;;;;;;;14.93;9.00;;;10.20;83.50;;;;;;4999260;28;112957;-46
2024/02/26 16:52:06;;;;;;;11.63;10.32;;;10.20;83.50;;;;;;4990873;28;113445;-46
2024/02/26 16:54:31;;;;;;;12.20;10.90;;;10.20;83.70;;;;;;4993641;28;112937;-47
2024/02/26 16:56:57;;;;;;;16.83;11.25;;;10.00;84.40;;;;;;4994345;28;114596;-47
2024/02/26 16:59:27;;;;;;;13.73;10.93;;;10.00;84.70;;;;;;4995083;28;113044;-58
2024/02/26 17:01:54;;;;;;;12.05;10.75;;;10.10;84.60;;;;;;4989399;28;114660;-51
2024/02/26 17:04:21;;;;;;;14.70;12.27;;;9.90;84.70;;;;;;4996282;28;112872;-47
2024/02/26 17:06:46;;;;;;;12.25;10.07;;;10.00;84.90;;;;;;4988061;28;113157;-46
2024/02/26 17:09:12;;;;;;;10.50;9.27;;;10.00;84.30;;;;;;4987759;28;112831;-53
2024/02/26 17:11:38;;;;;;;9.52;8.48;;;10.00;84.00;;;;;;4988900;28;113257;-46
2024/02/26 17:14:04;;;;;;;11.43;8.38;;;10.00;83.70;;;;;;4989158;28;113062;-46
2024/02/26 17:16:31;;;;;;;10.95;8.50;;;10.10;83.60;;;;;;4988790;28;113742;-47
2024/02/26 17:18:57;;;;;;;13.50;9.82;;;10.00;84.00;;;;;;4990432;28;113265;-46
2024/02/26 17:21:24;;;;;;;12.38;10.60;;;10.10;84.40;;;;;;4989446;28;113293;-46
2024/02/26 17:23:50;;;;;;;11.88;10.55;;;10.10;84.10;;;;;;4987678;28;113226;-50
2024/02/26 17:26:19;;;;;;;12.10;10.45;;;10.00;84.40;;;;;;4989410;28;113381;-46
2024/02/26 17:28:45;;;;;;;11.85;10.23;;;10.00;84.70;;;;;;4990666;28;112807;-47
2024/02/26 17:31:12;;;;;;;13.52;10.43;;;9.90;84.60;;;;;;4986842;28;116209;-47
2024/02/26 17:33:38;;;;;;;12.20;9.20;;;9.90;84.60;;;;;;4988188;28;113238;-47
2024/02/26 17:36:04;;;;;;;10.23;9.20;;;10.00;84.60;;;;;;4990133;28;113256;-46
2024/02/26 17:38:29;;;;;;;10.65;7.72;;;10.00;84.60;;;;;;4990143;28;113223;-47
2024/02/26 17:40:55;;;;;;;8.60;7.10;;;10.00;84.40;;;;;;4988824;28;113294;-51
2024/02/26 17:43:21;;;;;;;11.77;6.75;;;9.90;84.30;;;;;;4990194;28;113641;-46
2024/02/26 17:45:47;;;;;;;8.57;5.85;;;9.90;83.50;;;;;;4992934;28;112696;-48
2024/02/26 17:48:13;;;;;;;5.85;5.28;;;10.00;83.60;;;;;;4990173;28;113183;-46
2024/02/26 17:50:39;;;;;;;6.07;5.15;;;10.20;82.60;;;;;;4986945;28;113267;-47
2024/02/26 17:53:04;;;;;;;9.40;6.28;;;10.20;82.20;;;;;;4988256;28;113908;-47
2024/02/26 17:55:30;;;;;;;5.90;5.30;;;10.20;82.80;;;;;;4989788;28;112752;-47
2024/02/26 17:57:56;;;;;;;7.22;5.30;;;10.10;83.10;;;;;;4990023;28;112645;-53
2024/02/26 18:00:22;;;;;;;9.35;6.13;;;10.00;83.30;;;;;;4988899;28;114840;-48
2024/02/26 18:02:48;;;;;;;50.13;31.58;;;10.20;82.90;;;;;;4988388;28;114188;-47
2024/02/26 18:05:14;;;;;;;68.57;44.92;;;10.10;83.20;;;;;;4988525;28;112667;-46
2024/02/26 18:07:40;;;;;;;55.83;37.45;;;10.10;83.60;;;;;;4988724;28;112759;-48
2024/02/26 18:10:09;;;;;;;22.38;16.73;;;10.00;83.60;;;;;;4987737;28;113500;-46
2024/02/26 18:12:35;;;;;;;11.65;9.60;;;9.90;83.90;;;;;;4987574;28;113050;-50
2024/02/26 18:15:04;;;;;;;10.68;8.32;;;10.10;83.70;;;;;;4989299;28;112779;-48
2024/02/26 18:17:30;;;;;;;8.38;7.00;;;10.00;83.70;;;;;;4989102;28;112698;-47
2024/02/26 18:19:56;;;;;;;7.55;6.72;;;10.00;83.90;;;;;;4996767;28;113229;-45
2024/02/26 18:22:22;;;;;;;8.85;6.63;;;9.90;84.40;;;;;;5000196;28;113675;-44
2024/02/26 18:24:48;;;;;;;11.15;7.90;;;9.80;84.50;;;;;;4989134;28;112947;-48
2024/02/26 18:27:14;;;;;;;17.40;12.73;;;9.70;84.90;;;;;;4989075;28;113150;-49
2024/02/26 18:29:39;;;;;;;13.73;9.50;;;9.70;84.50;;;;;;4989158;28;113402;-47
2024/02/26 18:32:06;;;;;;;11.80;9.63;;;9.80;84.50;;;;;;4989413;28;112577;-48
2024/02/26 18:34:33;;;;;;;13.65;9.27;;;9.80;84.50;;;;;;4990351;28;112585;-50
2024/02/26 18:36:59;;;;;;;19.45;14.32;;;9.80;84.20;;;;;;4993407;28;113077;-47
2024/02/26 18:39:25;;;;;;;11.45;9.93;;;9.80;84.30;;;;;;4992313;28;113185;-50
2024/02/26 18:41:51;;;;;;;13.20;11.70;;;9.70;84.90;;;;;;4995629;28;112627;-46
2024/02/26 18:44:17;;;;;;;17.08;13.70;;;9.80;84.50;;;;;;4998018;28;113086;-48
2024/02/26 18:46:45;;;;;;;14.77;11.82;;;9.80;84.40;;;;;;4999238;28;112989;-46
2024/02/26 18:49:11;;;;;;;15.80;13.50;;;9.80;84.30;;;;;;4991786;28;114383;-44
2024/02/26 18:51:39;;;;;;;22.70;16.60;;;9.90;83.90;;;;;;4987269;28;113065;-52
2024/02/26 18:54:05;;;;;;;34.20;23.23;;;9.60;84.80;;;;;;4989166;28;112547;-47
2024/02/26 18:56:32;;;;;;;27.75;18.05;;;9.80;85.00;;;;;;4988623;28;112874;-45
2024/02/26 18:58:57;;;;;;;15.20;11.48;;;9.80;85.00;;;;;;4990514;28;113747;-52
2024/02/26 19:01:23;;;;;;;14.77;11.38;;;9.80;84.40;;;;;;4986470;28;113015;-47
2024/02/26 19:03:49;;;;;;;12.85;11.52;;;9.60;84.60;;;;;;4994410;28;112843;-47
2024/02/26 19:06:15;;;;;;;16.10;11.68;;;9.60;84.90;;;;;;4992633;28;113310;-45
2024/02/26 19:08:40;;;;;;;10.02;9.02;;;9.60;84.90;;;;;;4992468;28;113223;-48
2024/02/26 19:11:10;;;;;;;13.75;10.50;;;9.50;84.80;;;;;;4994666;28;113942;-46
2024/02/26 19:13:36;;;;;;;11.68;9.52;;;9.60;84.70;;;;;;4985762;28;113027;-46
2024/02/26 19:16:02;;;;;;;11.20;9.93;;;9.50;84.60;;;;;;4986499;28;112772;-48
2024/02/26 19:18:29;;;;;;;12.73;9.98;;;9.60;84.60;;;;;;4985587;28;113188;-46
2024/02/26 19:20:55;;;;;;;11.98;9.40;;;9.60;84.60;;;;;;4985681;28;112589;-46
2024/02/26 19:23:20;;;;;;;10.30;8.32;;;9.70;84.50;;;;;;4995726;28;112976;-52
2024/02/26 19:25:46;;;;;;;12.85;11.15;;;9.60;84.00;;;;;;4994055;28;112655;-48
2024/02/26 19:28:12;;;;;;;10.93;8.88;;;9.60;84.60;;;;;;4986564;28;113647;-46
2024/02/26 19:30:39;;;;;;;8.65;7.03;;;9.50;84.30;;;;;;4988658;28;112793;-46
2024/02/26 19:33:05;;;;;;;7.72;6.60;;;9.40;84.40;;;;;;4989402;28;112984;-46
2024/02/26 19:35:31;;;;;;;7.80;6.72;;;9.50;83.90;;;;;;4988465;28;112825;-49
2024/02/26 19:37:56;;;;;;;10.05;5.97;;;9.30;84.40;;;;;;4995987;28;113435;-46
2024/02/26 19:40:26;;;;;;;7.28;5.97;;;9.30;84.70;;;;;;4987077;28;114709;-48
2024/02/26 19:42:51;;;;;;;9.75;8.00;;;9.40;83.90;;;;;;4988170;28;112933;-46
2024/02/26 19:45:17;;;;;;;16.63;14.90;;;9.40;84.10;;;;;;4995633;28;112875;-53
2024/02/26 19:47:43;;;;;;;8.00;5.78;;;9.40;84.20;;;;;;4986036;28;113518;-49
2024/02/26 19:50:09;;;;;;;9.45;5.38;;;9.30;84.30;;;;;;4986566;28;113558;-47
2024/02/26 19:52:35;;;;;;;7.45;6.22;;;9.30;84.10;;;;;;4987820;28;112637;-47
2024/02/26 19:55:02;;;;;;;5.80;5.30;;;9.40;84.00;;;;;;4988111;28;112813;-45
2024/02/26 19:57:28;;;;;;;7.63;5.28;;;9.50;83.60;;;;;;4986966;28;113305;-50
2024/02/26 19:59:54;;;;;;;5.20;4.47;;;9.30;83.70;;;;;;4990914;28;113755;-46
2024/02/26 20:02:20;;;;;;;6.20;3.97;;;9.30;83.60;;;;;;4988231;28;113430;-46
2024/02/26 20:04:45;;;;;;;5.30;4.80;;;9.30;83.40;;;;;;4991719;28;113514;-48
2024/02/26 20:07:12;;;;;;;9.95;8.07;;;9.40;83.50;;;;;;4986391;28;113402;-46
2024/02/26 20:09:37;;;;;;;17.38;11.38;;;9.30;83.70;;;;;;4997525;28;112805;-46
2024/02/26 20:12:04;;;;;;;13.25;9.57;;;9.30;83.60;;;;;;4995206;28;112738;-46
2024/02/26 20:14:30;;;;;;;6.70;4.88;;;9.30;83.50;;;;;;4996569;28;112830;-49
2024/02/26 20:16:58;;;;;;;5.28;3.72;;;9.30;83.20;;;;;;4989018;28;113233;-50
2024/02/26 20:19:24;;;;;;;5.05;3.83;;;9.30;82.90;;;;;;4995014;28;114007;-49
2024/02/26 20:21:49;;;;;;;4.10;3.63;;;9.40;82.80;;;;;;4988685;28;112954;-46